Latest Coastal Weather Observations for Lake Macquarie - Cooranbong

IDN60701

Issued at 10:05 pm EST Tuesday 2 September 2014 (issued every 10 minutes, with the page automatically refreshed every 10 minutes)

About coastal observations | Map of coastal stations | Coastal observations for NSW | Marine services | Other Formats
Station Details ID: 061412 Name: LAKE MACQUARIE AWS Lat: -33.09 Lon: 151.46 Height: 6.0 m
Data from the previous 72 hours. | See also: Recent months at Lake Macquarie - Cooranbong
Date/Time
EST
Temp

°C
Wind Pressure Rain
since 9am
mm
Weather Cloud Vis
km
Sea
Height
m
Swell
Dir
 
Speed
knots
Gust
knots
hPa Trend Height
m
Period
s
Dir
02/10:00pm 11.8 SW 8 19 1011.5 - 11.4 - - - - - - -
02/09:30pm 12.2 WSW 7 13 1011.2 - 11.4 - - - - - - -
02/09:00pm 11.9 W 5 9 1011.0 - 11.4 - - - - - - -
02/08:30pm 11.5 W 5 11 1010.9 - 11.4 - - - - - - -
02/08:00pm 10.8 WSW 3 5 1010.8 - 11.4 - - - - - - -
02/07:30pm 11.5 WSW 4 10 1010.5 - 11.4 - - - - - - -
02/07:00pm 11.6 W 5 9 1010.3 - 11.4 - - - - - - -
02/06:30pm 11.1 WSW 4 7 1010.2 - 11.4 - - - - - - -
02/06:00pm 10.1 WSW 1 4 1010.0 - 11.4 Recent precip. - - - - - -
02/05:30pm 10.9 WSW 3 7 1009.9 - 11.2 - - - - - - -
02/05:00pm 10.2 WSW 4 13 1009.6 - 11.2 - - - - - - -
02/04:30pm 13.5 NNW 2 4 1009.1 - 4.8 - - - - - - -
02/04:00pm 13.9 E 2 4 1007.8 - 4.4 - - - - - - -
02/03:30pm 14.6 S 3 5 1007.8 - 4.4 - - - - - - -
02/03:00pm 15.7 E 1 2 1007.5 - 3.0 - - - - - - -
02/02:30pm 15.3 NE 1 2 1007.6 - 3.0 - - - - - - -
02/02:00pm 13.7 E 2 3 1007.9 - 3.0 - - - - - - -
02/01:30pm 13.5 SSE 2 4 1007.9 - 3.0 - - - - - - -
02/01:00pm 12.7 N 1 4 1007.8 - 3.0 - - - - - - -
02/12:30pm 12.0 N 2 3 1008.0 - 3.0 - - - - - - -
02/12:00pm 13.3 WNW 7 13 1008.7 - 1.4 Rain - - - - - -
02/11:30am 15.4 SW 2 4 1008.1 - 0.0 - - - - - - -
02/11:00am 15.2 NW 3 5 1008.9 - 0.0 - - - - - - -
02/10:30am 14.4 CALM 0 0 1009.2 - 0.0 - - - - - - -
02/10:00am 14.7 CALM 0 0 1009.5 - 0.0 - - - - - - -
02/09:30am 14.8 N 1 2 1009.7 - 0.0 - - - - - - -
02/09:00am 13.8 CALM 0 0 1009.9 - 0.0 - - - - - - -
02/08:30am 13.8 CALM 0 1 1010.2 - 0.0 - - - - - - -
02/08:00am 14.3 CALM 0 0 1010.1 - 0.0 - - - - - - -
02/07:30am 15.9 W 4 8 1010.1 - 0.0 - - - - - - -
02/07:00am 14.6 SW 3 6 1010.3 - 0.0 - - - - - - -
02/06:30am 11.2 CALM 0 2 1009.6 - 0.0 - - - - - - -
02/06:00am 11.0 CALM 0 0 1009.3 - 0.0 - - - - - - -
02/05:30am 11.1 CALM 0 0 1008.9 - 0.0 - - - - - - -
02/05:00am 10.9 CALM 0 0 1008.3 - 0.0 - - - - - - -
02/04:30am 11.1 CALM 0 0 1008.3 - 0.0 - - - - - - -
02/04:00am 11.0 CALM 0 0 1008.2 - 0.0 - - - - - - -
02/03:30am 11.0 CALM 0 0 1008.5 - 0.0 - - - - - - -
02/03:00am 11.0 CALM 0 0 1008.8 - 0.0 - - - - - - -
02/02:30am 11.1 CALM 0 0 1009.2 - 0.0 - - - - - - -
02/02:00am 11.2 CALM 0 0 1009.5 - 0.0 - - - - - - -
02/01:30am 11.3 CALM 0 0 1010.1 - 0.0 - - - - - - -
02/01:00am 11.3 CALM 0 0 1010.5 - 0.0 - - - - - - -
02/12:30am 11.6 CALM 0 0 1010.8 - 0.0 - - - - - - -
02/12:00am 11.9 N 0 0 1011.2 - 0.0 - - - - - - -
 
Date/Time
EST
Temp

°C
Wind Pressure Rain
since 9am
mm
Weather Cloud Vis
km
Sea
Height
m
Swell
Dir
 
Speed
knots
Gust
knots
hPa Trend Height
m
Period
s
Dir
01/11:30pm 12.4 N 2 4 1011.7 - 0.0 - - - - - - -
01/11:00pm 13.5 NNW 3 6 1011.8 - 0.0 - - - - - - -
01/10:30pm 11.7 CALM 0 0 1012.1 - 0.0 - - - - - - -
01/10:00pm 11.9 CALM 0 0 1012.4 - 0.0 - - - - - - -
01/09:30pm 11.9 CALM 0 0 1012.6 - 0.0 - - - - - - -
01/09:00pm 11.9 CALM 0 0 1012.9 - 0.0 - - - - - - -
01/08:30pm 11.9 CALM 0 0 1012.9 - 0.0 - - - - - - -
01/08:00pm 12.7 CALM 0 0 1012.8 - 0.0 - - - - - - -
01/07:30pm 13.4 CALM 0 0 1012.5 - 0.0 - - - - - - -
01/07:00pm 14.5 CALM 0 0 1012.2 - 0.0 - - - - - - -
01/06:30pm 15.4 CALM 0 2 1011.9 - 0.0 - - - - - - -
01/06:00pm 16.9 CALM 0 0 1011.7 - 0.0 - - - - - - -
01/05:30pm 18.2 CALM 0 1 1011.5 - 0.0 - - - - - - -
01/05:00pm 20.1 N 2 4 1011.6 - 0.0 - - - - - - -
01/04:30pm 21.7 N 3 5 1011.5 - 0.0 - - - - - - -
01/04:00pm 22.4 NNW 4 7 1011.4 - 0.0 - - - - - - -
01/03:30pm 22.4 NNW 5 10 1011.5 - 0.0 - - - - - - -
01/03:00pm 22.7 N 6 10 1011.7 - 0.0 - - - - - - -
01/02:30pm 22.5 NNW 4 8 1011.9 - 0.0 - - - - - - -
01/02:00pm 22.3 N 6 11 1012.5 - 0.0 - - - - - - -
01/01:30pm 23.6 NW 5 10 1013.0 - 0.0 - - - - - - -
01/01:00pm 23.3 NNW 4 9 1013.3 - 0.0 - - - - - - -
01/12:30pm 22.8 NW 5 9 1013.8 - 0.0 - - - - - - -
01/12:00pm 22.7 NW 4 8 1014.3 - 0.0 - - - - - - -
01/11:30am 22.4 WNW 7 11 1014.8 - 0.0 - - - - - - -
01/11:00am 21.8 WNW 6 11 1015.4 - 0.0 - - - - - - -
01/10:30am 21.3 NNW 5 11 1015.9 - 0.0 - - - - - - -
01/10:00am 20.4 N 4 6 1016.6 - 0.0 - - - - - - -
01/09:30am 19.0 N 3 5 1017.2 - 0.0 - - - - - - -
01/09:00am 17.3 NE 1 4 1017.4 - 0.0 - - - - - - -
01/08:30am 13.9 CALM 0 0 1017.7 - 0.0 - - - - - - -
01/08:00am 10.7 CALM 0 0 1017.6 - 0.0 - - - - - - -
01/07:30am 8.5 CALM 0 0 1017.5 - 0.0 - - - - - - -
01/07:00am 6.2 CALM 0 0 1017.5 - 0.0 - - - - - - -
01/06:30am 5.8 CALM 0 0 1017.4 - 0.0 - - - - - - -
01/06:00am 5.8 CALM 0 0 1017.2 - 0.0 - - - - - - -
01/05:30am 6.1 CALM 0 0 1017.0 - 0.0 - - - - - - -
01/05:00am 6.4 CALM 0 0 1016.7 - 0.0 - - - - - - -
01/04:30am 6.6 CALM 0 0 1016.5 - 0.0 - - - - - - -
01/04:00am 6.8 CALM 0 0 1016.3 - 0.0 - - - - - - -
01/03:30am 7.0 CALM 0 0 1016.4 - 0.0 - - - - - - -
01/03:00am 7.3 CALM 0 0 1016.5 - 0.0 - - - - - - -
01/02:30am 7.7 CALM 0 0 1016.9 - 0.0 - - - - - - -
01/02:00am 7.8 CALM 0 0 1017.2 - 0.0 - - - - - - -
01/01:30am 8.0 CALM 0 0 1017.5 - 0.0 - - - - - - -
01/01:00am 8.4 CALM 0 0 1017.8 - 0.0 - - - - - - -
01/12:30am 8.8 CALM 0 0 1017.9 - 0.0 - - - - - - -
01/12:00am 9.3 CALM 0 0 1018.1 - 0.0 - - - - - - -
 
Date/Time
EST
Temp

°C
Wind Pressure Rain
since 9am
mm
Weather Cloud Vis
km
Sea
Height
m
Swell
Dir
 
Speed
knots
Gust
knots
hPa Trend Height
m
Period
s
Dir
31/11:30pm 9.5 CALM 0 0 1018.2 - 0.0 - - - - - - -
31/11:00pm 9.5 CALM 0 0 1018.5 - 0.0 - - - - - - -
31/10:30pm 9.8 CALM 0 0 1018.4 - 0.0 - - - - - - -
31/10:00pm 9.9 CALM 0 0 1018.6 - 0.0 - - - - - - -
31/09:30pm 9.9 CALM 0 0 1018.5 - 0.0 - - - - - - -
31/09:00pm 10.6 CALM 0 0 1018.7 - 0.0 - - - - - - -
31/08:30pm 11.1 CALM 0 0 1018.6 - 0.0 - - - - - - -
31/08:00pm 11.4 CALM 0 0 1018.5 - 0.0 - - - - - - -
31/07:30pm 11.9 CALM 0 0 1018.4 - 0.0 - - - - - - -
31/07:00pm 12.4 CALM 0 0 1018.2 - 0.0 - - - - - - -
31/06:30pm 13.5 CALM 0 0 1018.0 - 0.0 - - - - - - -
31/06:00pm 14.4 CALM 0 0 1017.7 - 0.0 - - - - - - -
31/05:30pm 16.2 ESE 1 2 1017.6 - 0.0 - - - - - - -
31/05:00pm 17.5 ESE 3 5 1017.6 - 0.0 - - - - - - -
31/04:30pm 18.5 E 4 7 1017.3 - 0.0 - - - - - - -
31/04:00pm 19.2 E 5 8 1017.3 - 0.0 - - - - - - -
31/03:30pm 19.2 E 4 6 1017.3 - 0.0 - - - - - - -
31/03:00pm 20.0 E 5 9 1017.2 - 0.0 - - - - - - -
31/02:30pm 19.7 S 2 5 1017.5 - 0.0 - - - - - - -
31/02:00pm 20.1 S 3 5 1017.7 - 0.0 - - - - - - -
31/01:30pm 19.9 WSW 4 7 1018.1 - 0.0 - - - - - - -
31/01:00pm 18.9 SSW 3 6 1018.6 - 0.0 - - - - - - -
31/12:30pm 19.9 SW 3 6 1019.0 - 0.0 - - - - - - -
31/12:00pm 18.4 SW 3 6 1019.5 - 0.0 - - - - - - -
31/11:30am 19.0 WSW 2 5 1019.8 - 0.0 - - - - - - -
31/11:00am 18.7 WSW 3 6 1020.1 - 0.0 - - - - - - -
31/10:30am 18.2 WSW 5 12 1020.4 - 0.0 - - - - - - -
31/10:00am 18.2 SW 4 9 1020.8 - 0.0 - - - - - - -
31/09:30am 17.5 SSW 4 10 1020.9 - 0.0 - - - - - - -
31/09:00am 16.6 WSW 5 10 1021.0 - 0.2 - - - - - - -
31/08:30am 16.1 SW 5 8 1021.3 - 0.2 - - - - - - -
31/08:00am 15.5 WSW 3 6 1021.1 - 0.2 - - - - - - -
31/07:30am 14.4 WSW 2 4 1020.8 - 0.2 - - - - - - -
31/07:00am 11.5 CALM 0 2 1020.8 - 0.2 - - - - - - -
31/06:30am 11.6 CALM 0 1 1020.6 - 0.2 - - - - - - -
31/06:00am 12.5 WSW 1 3 1020.4 - 0.2 - - - - - - -
31/05:30am 13.0 WSW 1 3 1020.1 - 0.2 - - - - - - -
31/05:00am 13.6 W 3 6 1020.1 - 0.2 - - - - - - -
31/04:30am 13.5 W 4 6 1020.1 - 0.2 - - - - - - -
31/04:00am 13.6 W 3 6 1020.1 - 0.2 - - - - - - -
31/03:30am 13.6 WSW 2 5 1020.3 - 0.2 - - - - - - -
31/03:00am 13.6 WSW 2 5 1020.3 - 0.2 - - - - - - -
31/02:30am 13.6 WSW 3 5 1020.5 - 0.2 - - - - - - -
31/02:00am 13.9 SW 4 9 1020.6 - 0.2 - - - - - - -
31/01:30am 13.9 WSW 5 11 1020.8 - 0.2 - - - - - - -
31/01:00am 13.9 SW 4 11 1020.9 - 0.2 - - - - - - -
31/12:30am 14.1 SW 4 9 1021.1 - 0.2 - - - - - - -
31/12:00am 14.2 WSW 3 6 1021.3 - 0.2 - - - - - - -
 
Date/Time
EST
Temp

°C
Wind Pressure Rain
since 9am
mm
Weather Cloud Vis
km
Sea
Height
m
Swell
Dir
 
Speed
knots
Gust
knots
hPa Trend Height
m
Period
s
Dir
30/11:30pm 14.5 SW 3 6 1021.5 - 0.2 - - - - - - -
30/11:00pm 14.5 SW 3 7 1021.6 - 0.2 - - - - - - -
30/10:30pm 14.5 SW 4 7 1021.6 - 0.2 - - - - - - -

Other Formats:

Comma delimited format used in spreadsheet applications
http://www.bom.gov.au/fwo/IDN60701/IDN60701.95767.axf

JavaScript Object Notation format (JSON) in row-major order
http://www.bom.gov.au/fwo/IDN60701/IDN60701.95767.json